Time;durP1;ratioP1;P1;durP2;ratioP2;P2;SDS_P1;SDS_P2;PMS_P1;PMS_P2;Temp;Humidity;BMP_temperature;BMP_pressure;BME280_temperature;BME280_humidity;BME280_pressure;Samples;Min_cycle;Max_cycle;Signal;HPM_P1;HPM_P2
2021/10/18 00:01:21;;;;;;;6.40;4.33;;;8.60;1.00;;;;;;5014621;28;20240;-65
2021/10/18 00:03:48;;;;;;;6.93;4.23;;;8.70;1.00;;;;;;5014509;28;20214;-65
2021/10/18 00:06:14;;;;;;;6.13;4.30;;;8.70;1.00;;;;;;5014074;28;20576;-65
2021/10/18 00:08:41;;;;;;;6.33;4.10;;;8.70;1.00;;;;;;5014498;28;20226;-65
2021/10/18 00:11:08;;;;;;;9.53;4.20;;;8.70;1.00;;;;;;5014573;28;20234;-65
2021/10/18 00:13:35;;;;;;;4.57;3.83;;;8.60;1.00;;;;;;5014528;28;20211;-66
2021/10/18 00:16:03;;;;;;;5.73;3.57;;;8.60;1.00;;;;;;5014063;28;20255;-64
2021/10/18 00:18:29;;;;;;;7.20;3.80;;;8.60;1.00;;;;;;5014367;28;20211;-64
2021/10/18 00:20:56;;;;;;;6.80;4.20;;;8.60;1.00;;;;;;5014134;28;20288;-65
2021/10/18 00:23:23;;;;;;;5.67;3.93;;;8.60;1.00;;;;;;5014421;28;20256;-65
2021/10/18 00:25:52;;;;;;;7.83;4.27;;;8.60;1.00;;;;;;5013873;28;20650;-65
2021/10/18 00:28:19;;;;;;;5.50;3.77;;;8.50;1.00;;;;;;5014189;28;20629;-65
2021/10/18 00:30:46;;;;;;;6.73;3.67;;;8.50;1.00;;;;;;5013965;28;20779;-64
2021/10/18 00:33:14;;;;;;;10.10;4.10;;;8.40;1.00;;;;;;5014050;28;20283;-65
2021/10/18 00:35:41;;;;;;;7.97;4.53;;;8.30;1.00;;;;;;5013855;28;20213;-65
2021/10/18 00:38:07;;;;;;;7.00;4.30;;;8.30;1.00;;;;;;5014117;28;20203;-63
2021/10/18 00:40:34;;;;;;;5.70;4.30;;;8.20;1.00;;;;;;5013853;28;20228;-65
2021/10/18 00:43:01;;;;;;;9.03;5.07;;;8.20;1.00;;;;;;5013942;28;20204;-66
2021/10/18 00:45:28;;;;;;;6.43;4.37;;;8.10;1.00;;;;;;5013196;28;20207;-64
2021/10/18 00:47:55;;;;;;;7.53;4.13;;;8.00;1.00;;;;;;5013508;28;20212;-65
2021/10/18 00:50:23;;;;;;;5.57;4.30;;;7.90;1.00;;;;;;5013632;28;20235;-63
2021/10/18 00:52:50;;;;;;;4.73;4.00;;;7.80;1.00;;;;;;5013724;28;20264;-66
2021/10/18 00:55:18;;;;;;;6.33;4.30;;;7.80;1.00;;;;;;5013425;28;20238;-65
2021/10/18 00:57:44;;;;;;;6.60;4.20;;;7.80;1.00;;;;;;5013462;28;20620;-65
2021/10/18 01:00:12;;;;;;;7.20;4.47;;;7.80;1.00;;;;;;5013299;28;20298;-65
2021/10/18 01:02:39;;;;;;;7.40;4.77;;;7.70;1.00;;;;;;5013609;28;20607;-65
2021/10/18 01:05:06;;;;;;;6.10;4.27;;;7.70;1.00;;;;;;5013084;28;20676;-66
2021/10/18 01:07:35;;;;;;;4.87;4.07;;;7.70;1.00;;;;;;5013491;28;20623;-65
2021/10/18 01:10:02;;;;;;;6.53;4.50;;;7.70;1.00;;;;;;5013210;28;20273;-65
2021/10/18 01:12:28;;;;;;;4.80;4.00;;;7.70;1.00;;;;;;5013396;28;20562;-64
2021/10/18 01:14:55;;;;;;;7.97;4.70;;;7.70;1.00;;;;;;5012748;28;20211;-64
2021/10/18 01:17:22;;;;;;;5.57;4.20;;;7.60;1.00;;;;;;5013433;28;20207;-65
2021/10/18 01:19:50;;;;;;;7.10;4.00;;;7.60;1.00;;;;;;5013190;28;20210;-64
2021/10/18 01:22:18;;;;;;;5.40;4.30;;;7.60;1.00;;;;;;5013222;28;20211;-65
2021/10/18 01:24:44;;;;;;;7.50;4.90;;;7.50;1.00;;;;;;5012733;28;20206;-64
2021/10/18 01:27:13;;;;;;;6.87;4.60;;;7.50;1.00;;;;;;5013133;28;20203;-65
2021/10/18 01:29:40;;;;;;;7.00;4.53;;;7.60;1.00;;;;;;5012814;28;20238;-65
2021/10/18 01:32:09;;;;;;;6.47;4.57;;;7.60;1.00;;;;;;5012683;28;20704;-65
2021/10/18 01:34:36;;;;;;;8.00;5.13;;;7.60;1.00;;;;;;5012728;28;20207;-64
2021/10/18 01:37:04;;;;;;;5.70;4.33;;;7.60;1.00;;;;;;5012773;28;20202;-65
2021/10/18 01:39:33;;;;;;;6.00;4.43;;;7.60;1.00;;;;;;5012851;28;20211;-65
2021/10/18 01:41:59;;;;;;;4.97;4.20;;;7.60;1.00;;;;;;5012647;28;20664;-64
2021/10/18 01:44:26;;;;;;;6.17;4.83;;;7.60;1.00;;;;;;5012698;28;20672;-65
2021/10/18 01:46:53;;;;;;;6.70;4.60;;;7.60;1.00;;;;;;5012812;28;20210;-65
2021/10/18 01:49:20;;;;;;;7.13;4.93;;;7.60;1.00;;;;;;5012668;28;20231;-65
2021/10/18 01:51:46;;;;;;;5.87;5.07;;;7.60;1.00;;;;;;5012863;28;20234;-65
2021/10/18 01:54:13;;;;;;;6.97;4.73;;;7.60;1.00;;;;;;5012609;28;20202;-65
2021/10/18 01:56:41;;;;;;;7.03;4.73;;;7.60;1.00;;;;;;5012236;28;20214;-64
2021/10/18 01:59:08;;;;;;;9.20;4.50;;;7.60;1.00;;;;;;5011859;28;20207;-65
2021/10/18 02:01:35;;;;;;;6.50;4.97;;;7.60;1.00;;;;;;5012408;28;20243;-65
2021/10/18 02:04:01;;;;;;;6.80;4.77;;;7.70;1.00;;;;;;5012527;28;20206;-66
2021/10/18 02:06:28;;;;;;;6.33;4.57;;;7.70;1.00;;;;;;5012166;28;20203;-65
2021/10/18 02:08:55;;;;;;;6.93;4.77;;;7.80;1.00;;;;;;5012395;28;20398;-63
2021/10/18 02:11:21;;;;;;;7.13;4.73;;;7.80;1.00;;;;;;5012224;28;20231;-66
2021/10/18 02:13:49;;;;;;;5.60;4.50;;;7.80;1.00;;;;;;5012563;28;20277;-64
2021/10/18 02:16:16;;;;;;;6.20;4.70;;;7.80;1.00;;;;;;5012015;28;20591;-64
2021/10/18 02:18:43;;;;;;;7.03;4.40;;;7.80;1.00;;;;;;5012914;28;20257;-65
2021/10/18 02:21:09;;;;;;;6.73;4.70;;;7.70;1.00;;;;;;5012188;28;20280;-65
2021/10/18 02:23:36;;;;;;;9.93;5.20;;;7.70;1.00;;;;;;5012212;28;20211;-64
2021/10/18 02:26:02;;;;;;;8.00;4.73;;;7.70;1.00;;;;;;5012100;28;20259;-64
2021/10/18 02:28:29;;;;;;;9.97;5.07;;;7.70;1.00;;;;;;5012352;28;20269;-64
2021/10/18 02:30:57;;;;;;;7.80;4.97;;;7.60;1.00;;;;;;5012326;28;20223;-65
2021/10/18 02:33:24;;;;;;;9.33;4.93;;;7.60;1.00;;;;;;5012189;28;20238;-65
2021/10/18 02:35:50;;;;;;;9.33;4.73;;;7.60;1.00;;;;;;5011966;28;20202;-64
2021/10/18 02:38:17;;;;;;;9.00;4.80;;;7.60;1.00;;;;;;5011915;28;20253;-64
2021/10/18 02:40:44;;;;;;;7.33;5.00;;;7.60;1.00;;;;;;5012554;28;20254;-65
2021/10/18 02:43:10;;;;;;;9.97;5.27;;;7.60;1.00;;;;;;5012053;28;20238;-65
2021/10/18 02:45:37;;;;;;;6.30;5.33;;;7.60;1.00;;;;;;5011901;28;20734;-64
2021/10/18 02:48:06;;;;;;;6.93;5.40;;;7.60;1.00;;;;;;5011987;28;20626;-65
2021/10/18 02:50:32;;;;;;;8.17;5.70;;;7.70;1.00;;;;;;5011917;28;20241;-64
2021/10/18 02:52:59;;;;;;;7.20;5.20;;;7.70;1.00;;;;;;5011918;28;20207;-64
2021/10/18 02:55:26;;;;;;;7.93;5.10;;;7.80;1.00;;;;;;5011709;28;20253;-65
2021/10/18 02:57:53;;;;;;;7.60;5.37;;;7.80;1.00;;;;;;5012295;28;20215;-66
2021/10/18 03:00:19;;;;;;;7.77;4.63;;;7.90;1.00;;;;;;5011684;28;20625;-65
2021/10/18 03:02:46;;;;;;;7.40;5.03;;;7.90;1.00;;;;;;5011970;28;20203;-65
2021/10/18 03:05:14;;;;;;;5.87;5.20;;;8.00;1.00;;;;;;5011295;28;20217;-65
2021/10/18 03:07:41;;;;;;;4.93;4.43;;;8.00;1.00;;;;;;5011823;28;20269;-66
2021/10/18 03:10:09;;;;;;;5.30;4.80;;;8.00;1.00;;;;;;5014290;28;20231;-64
2021/10/18 03:12:36;;;;;;;6.67;5.17;;;8.10;1.00;;;;;;5015654;28;20293;-65
2021/10/18 03:15:03;;;;;;;6.37;4.23;;;8.10;1.00;;;;;;5015544;28;20750;-65
2021/10/18 03:17:30;;;;;;;8.20;4.60;;;8.10;1.00;;;;;;5015398;28;20616;-64
2021/10/18 03:19:57;;;;;;;11.60;5.90;;;8.10;1.00;;;;;;5015255;28;20716;-65
2021/10/18 03:22:25;;;;;;;6.23;5.00;;;8.20;1.00;;;;;;5015413;28;20214;-65
2021/10/18 03:24:52;;;;;;;6.13;4.70;;;8.10;1.00;;;;;;5015152;28;20215;-64
2021/10/18 03:27:18;;;;;;;11.30;4.93;;;8.20;1.00;;;;;;5015228;28;20676;-65
2021/10/18 03:29:45;;;;;;;9.43;5.33;;;8.20;1.00;;;;;;5015027;28;20307;-65
2021/10/18 03:32:12;;;;;;;6.03;4.73;;;8.10;1.00;;;;;;5015037;28;20245;-64
2021/10/18 03:34:39;;;;;;;6.23;4.93;;;8.20;1.00;;;;;;5014564;28;20696;-65
2021/10/18 03:37:06;;;;;;;7.43;4.93;;;8.20;1.00;;;;;;5014826;28;20211;-65
2021/10/18 03:39:34;;;;;;;7.87;4.67;;;8.10;1.00;;;;;;5014947;28;20565;-64
2021/10/18 03:42:01;;;;;;;8.33;5.13;;;8.10;1.00;;;;;;5015004;28;20207;-64
2021/10/18 03:44:27;;;;;;;6.57;4.70;;;8.00;1.00;;;;;;5014833;28;20203;-65
2021/10/18 03:46:54;;;;;;;6.50;4.70;;;8.00;1.00;;;;;;5014520;28;20207;-63
2021/10/18 03:49:21;;;;;;;7.90;4.83;;;7.90;1.00;;;;;;5014740;28;20227;-65
2021/10/18 03:51:48;;;;;;;7.67;5.07;;;7.90;1.00;;;;;;5015150;28;20227;-65
2021/10/18 03:54:15;;;;;;;8.03;5.80;;;7.90;1.00;;;;;;5014673;28;20675;-64
2021/10/18 03:56:43;;;;;;;9.63;6.10;;;7.80;1.00;;;;;;5014596;28;20219;-65
2021/10/18 03:59:09;;;;;;;6.77;5.13;;;7.80;1.00;;;;;;5014821;28;20204;-65
2021/10/18 04:01:36;;;;;;;8.57;4.93;;;7.70;1.00;;;;;;5014329;28;20289;-65
2021/10/18 04:04:03;;;;;;;9.47;5.60;;;7.60;1.00;;;;;;5014863;28;20211;-64
2021/10/18 04:06:29;;;;;;;5.67;4.80;;;7.60;1.00;;;;;;5014110;28;20667;-65
2021/10/18 04:08:57;;;;;;;8.47;5.30;;;7.60;1.00;;;;;;5004379;28;20266;-65
2021/10/18 04:11:23;;;;;;;6.00;4.63;;;7.50;1.00;;;;;;4994683;28;20259;-64
2021/10/18 04:13:51;;;;;;;8.20;5.00;;;7.50;1.00;;;;;;4994788;28;20211;-65
2021/10/18 04:16:18;;;;;;;8.47;5.47;;;7.50;1.00;;;;;;4994050;28;20215;-65
2021/10/18 04:18:44;;;;;;;7.23;5.77;;;7.40;1.00;;;;;;4994630;28;20711;-65
2021/10/18 04:21:11;;;;;;;6.47;4.83;;;7.40;1.00;;;;;;4993177;28;20734;-64
2021/10/18 04:23:38;;;;;;;8.90;5.70;;;7.40;3.00;;;;;;4990219;28;20277;-65
2021/10/18 04:26:04;;;;;;;8.07;5.33;;;7.40;7.80;;;;;;4974665;28;20215;-65
2021/10/18 04:28:31;;;;;;;6.23;5.30;;;7.40;16.70;;;;;;4974860;28;20283;-64
2021/10/18 04:30:59;;;;;;;8.20;5.60;;;7.40;9.80;;;;;;4985397;28;20263;-64
2021/10/18 04:33:26;;;;;;;7.03;5.20;;;7.40;3.00;;;;;;5013643;28;20253;-65
2021/10/18 04:35:53;;;;;;;8.03;5.07;;;7.50;3.00;;;;;;5006854;28;20254;-64
2021/10/18 04:38:19;;;;;;;7.60;5.37;;;7.40;3.00;;;;;;4994268;28;20204;-64
2021/10/18 04:40:46;;;;;;;9.50;5.27;;;7.40;3.00;;;;;;4993958;28;20228;-63
2021/10/18 04:43:13;;;;;;;8.70;4.90;;;7.40;13.70;;;;;;4994134;28;20266;-64
2021/10/18 04:45:40;;;;;;;7.10;5.30;;;7.40;6.90;;;;;;4993634;28;20207;-63
2021/10/18 04:48:08;;;;;;;7.83;5.67;;;7.40;20.20;;;;;;4994363;28;20582;-63
2021/10/18 04:50:35;;;;;;;10.20;5.30;;;7.40;20.50;;;;;;4994103;28;20232;-64
2021/10/18 04:53:02;;;;;;;7.20;5.30;;;7.40;41.50;;;;;;4994026;28;20630;-63
2021/10/18 04:55:29;;;;;;;7.67;5.57;;;7.40;90.50;;;;;;4993696;28;20208;-64
2021/10/18 04:57:57;;;;;;;7.03;5.13;;;7.30;99.90;;;;;;4993763;28;20207;-64
2021/10/18 05:00:25;;;;;;;8.70;6.10;;;7.30;99.90;;;;;;4993347;28;20298;-66
2021/10/18 05:02:52;;;;;;;8.10;5.60;;;7.30;99.90;;;;;;4993827;28;20207;-66
2021/10/18 05:05:21;;;;;;;7.20;5.53;;;7.30;99.90;;;;;;4973905;28;20259;-64
2021/10/18 05:07:59;;;;;;;7.37;5.67;;;7.30;99.90;;;;;;4974289;28;20285;-64
2021/10/18 05:10:26;;;;;;;7.80;5.20;;;7.30;99.90;;;;;;4973887;28;20235;-67
2021/10/18 05:12:53;;;;;;;8.33;5.33;;;7.30;99.90;;;;;;4991095;28;20669;-65
2021/10/18 05:15:20;;;;;;;7.53;5.97;;;7.20;99.90;;;;;;4993324;28;20680;-66
2021/10/18 05:17:46;;;;;;;8.07;5.83;;;7.20;99.90;;;;;;4993699;28;20211;-66
2021/10/18 05:20:13;;;;;;;8.03;5.83;;;7.10;99.90;;;;;;5008471;28;20227;-64
2021/10/18 05:22:41;;;;;;;8.80;6.23;;;7.10;99.90;;;;;;5012997;28;20730;-65
2021/10/18 05:25:08;;;;;;;12.63;6.20;;;7.10;99.90;;;;;;5010749;28;21006;-64
2021/10/18 05:27:35;;;;;;;8.67;6.33;;;7.10;99.90;;;;;;4993588;28;20254;-65
2021/10/18 05:30:02;;;;;;;10.43;6.40;;;7.10;99.90;;;;;;5005465;28;20285;-65
2021/10/18 05:32:29;;;;;;;11.67;6.73;;;7.10;99.90;;;;;;5013232;28;20202;-65
2021/10/18 05:34:55;;;;;;;8.27;6.40;;;7.10;99.90;;;;;;5012459;28;20214;-65
2021/10/18 05:37:22;;;;;;;7.80;6.17;;;7.10;1.00;;;;;;5012937;28;20219;-65
2021/10/18 05:39:50;;;;;;;9.03;6.87;;;7.10;1.00;;;;;;5012944;28;20605;-65
2021/10/18 05:42:17;;;;;;;8.87;6.80;;;7.10;1.00;;;;;;5012832;28;20668;-63
2021/10/18 05:44:44;;;;;;;11.10;7.30;;;7.10;1.00;;;;;;5012257;28;20687;-64
2021/10/18 05:47:11;;;;;;;8.63;6.17;;;7.10;1.00;;;;;;5012732;28;20300;-64
2021/10/18 05:49:38;;;;;;;8.87;6.80;;;7.10;1.00;;;;;;5012536;28;20203;-64
2021/10/18 05:52:05;;;;;;;10.00;6.90;;;7.10;1.00;;;;;;4985129;28;20212;-63
2021/10/18 05:54:32;;;;;;;11.07;7.17;;;7.00;1.00;;;;;;4991759;28;20659;-64
2021/10/18 05:57:00;;;;;;;10.50;7.03;;;7.00;2.30;;;;;;4992314;28;20207;-66
2021/10/18 05:59:27;;;;;;;12.87;6.97;;;7.00;99.90;;;;;;4992451;28;20215;-65
2021/10/18 06:01:54;;;;;;;7.73;6.10;;;7.00;99.90;;;;;;4991936;28;20374;-65
2021/10/18 06:04:21;;;;;;;12.00;7.37;;;7.00;99.90;;;;;;4992272;28;20626;-64
2021/10/18 06:06:48;;;;;;;9.43;7.13;;;7.00;99.90;;;;;;4991839;28;20246;-64
2021/10/18 06:09:15;;;;;;;10.80;7.03;;;7.00;99.90;;;;;;4992253;28;20741;-64
2021/10/18 06:11:41;;;;;;;16.93;7.60;;;6.90;1.00;;;;;;4991989;28;20318;-65
2021/10/18 06:14:09;;;;;;;11.57;7.47;;;6.90;1.00;;;;;;4992980;28;20215;-66
2021/10/18 06:16:36;;;;;;;10.27;7.73;;;6.90;1.00;;;;;;5000584;28;20215;-66
2021/10/18 06:19:03;;;;;;;11.50;7.97;;;7.00;1.00;;;;;;4991158;28;20208;-65
2021/10/18 06:21:30;;;;;;;11.70;7.87;;;7.00;1.00;;;;;;5005830;28;20281;-64
2021/10/18 06:23:56;;;;;;;13.50;8.77;;;7.00;99.90;;;;;;5009562;28;20214;-64
2021/10/18 06:26:23;;;;;;;12.87;8.37;;;7.00;1.00;;;;;;5004117;28;20214;-65
2021/10/18 06:28:50;;;;;;;11.13;7.77;;;6.90;1.00;;;;;;4995507;28;20265;-63
2021/10/18 06:31:18;;;;;;;13.53;8.83;;;7.00;1.00;;;;;;4991514;28;20247;-64
2021/10/18 06:33:44;;;;;;;13.60;9.23;;;7.00;1.00;;;;;;4991568;28;20211;-63
2021/10/18 06:36:12;;;;;;;13.43;9.40;;;6.90;1.00;;;;;;5000544;28;20206;-63
2021/10/18 06:38:39;;;;;;;10.53;8.23;;;7.00;35.20;;;;;;4997643;28;20559;-65
2021/10/18 06:41:05;;;;;;;12.23;8.17;;;7.00;97.90;;;;;;5001102;28;20219;-64
2021/10/18 06:43:32;;;;;;;12.60;9.20;;;7.00;99.90;;;;;;5011819;28;20210;-63
2021/10/18 06:45:59;;;;;;;14.23;9.10;;;7.10;55.10;;;;;;5007762;28;20207;-64
2021/10/18 06:48:27;;;;;;;13.30;8.80;;;7.20;1.00;;;;;;4995652;28;20215;-64
2021/10/18 06:50:54;;;;;;;14.70;8.70;;;7.20;1.00;;;;;;4995490;28;20266;-63
2021/10/18 06:53:29;;;;;;;12.53;8.20;;;7.30;1.00;;;;;;4996000;28;20214;-62
2021/10/18 06:55:58;;;;;;;15.40;8.47;;;7.30;99.90;;;;;;4995254;28;20203;-63
2021/10/18 06:58:25;;;;;;;12.43;8.77;;;7.40;99.90;;;;;;4995628;28;20583;-64
2021/10/18 07:00:52;;;;;;;13.47;8.67;;;7.50;99.90;;;;;;4995205;28;20716;-62
2021/10/18 07:03:19;;;;;;;10.60;7.70;;;7.50;99.90;;;;;;4995760;28;20218;-63
2021/10/18 07:05:46;;;;;;;10.87;7.60;;;7.60;99.90;;;;;;4995288;28;20692;-64
2021/10/18 07:08:13;;;;;;;11.70;7.20;;;7.70;99.90;;;;;;4995221;28;20684;-63
2021/10/18 07:10:40;;;;;;;11.73;8.40;;;7.80;33.80;;;;;;4995148;28;20231;-64
2021/10/18 07:13:09;;;;;;;12.20;8.07;;;7.90;1.00;;;;;;4994958;28;20211;-63
2021/10/18 07:15:36;;;;;;;10.63;6.97;;;8.00;1.00;;;;;;4994868;28;20306;-64
2021/10/18 07:18:02;;;;;;;10.53;7.17;;;8.10;1.00;;;;;;4995234;28;20762;-63
2021/10/18 07:20:29;;;;;;;8.77;7.10;;;8.20;1.00;;;;;;4995165;28;20247;-64
2021/10/18 07:22:59;;;;;;;9.63;7.00;;;8.30;99.90;;;;;;5014625;28;20216;-63
2021/10/18 07:25:26;;;;;;;13.00;7.30;;;8.40;99.90;;;;;;5014422;28;20235;-64
2021/10/18 07:27:53;;;;;;;11.03;7.10;;;8.50;99.90;;;;;;5014595;28;20298;-65
2021/10/18 07:30:20;;;;;;;8.83;6.77;;;8.60;99.90;;;;;;5014235;28;20239;-63
2021/10/18 07:32:47;;;;;;;11.83;6.70;;;8.70;99.90;;;;;;5014678;28;20206;-65
2021/10/18 07:35:16;;;;;;;9.43;6.87;;;8.80;99.90;;;;;;5014141;28;20206;-61
2021/10/18 07:37:48;;;;;;;9.73;6.80;;;8.90;99.90;;;;;;5014670;28;20635;-63
2021/10/18 07:40:16;;;;;;;10.97;6.60;;;9.00;99.90;;;;;;5014255;28;20228;-65
2021/10/18 07:42:43;;;;;;;10.63;7.33;;;9.10;99.90;;;;;;5014306;28;20211;-62
2021/10/18 07:45:10;;;;;;;14.00;7.60;;;9.20;99.90;;;;;;5014402;28;20215;-62
2021/10/18 07:47:37;;;;;;;10.43;7.27;;;9.20;79.00;;;;;;5014448;28;20624;-64
2021/10/18 07:50:05;;;;;;;10.60;7.33;;;9.30;47.50;;;;;;5014129;28;20638;-63
2021/10/18 07:52:32;;;;;;;13.07;7.33;;;9.40;32.50;;;;;;5013954;28;20212;-65
2021/10/18 07:55:03;;;;;;;11.03;7.17;;;9.50;8.20;;;;;;5013269;28;20205;-64
2021/10/18 07:57:31;;;;;;;8.63;5.83;;;9.60;4.30;;;;;;5013664;28;20567;-64
2021/10/18 07:59:58;;;;;;;10.33;6.97;;;9.80;1.00;;;;;;5013961;28;20240;-65
2021/10/18 08:02:25;;;;;;;9.00;6.43;;;10.00;1.00;;;;;;5013813;28;20203;-67
2021/10/18 08:04:52;;;;;;;9.57;6.83;;;10.10;1.00;;;;;;5013538;28;20228;-65
2021/10/18 08:07:25;;;;;;;9.10;6.23;;;10.20;1.00;;;;;;5013854;28;20211;-66
2021/10/18 08:09:51;;;;;;;9.47;6.23;;;10.40;1.00;;;;;;5014025;28;20327;-63
2021/10/18 08:12:18;;;;;;;8.20;6.20;;;10.50;1.00;;;;;;5013746;28;20264;-65
2021/10/18 08:14:46;;;;;;;15.73;6.90;;;10.60;1.00;;;;;;5013547;28;20210;-65
2021/10/18 08:17:13;;;;;;;9.07;6.20;;;10.70;1.00;;;;;;5013795;28;20211;-65
2021/10/18 08:19:39;;;;;;;8.83;6.37;;;10.80;1.00;;;;;;5013776;28;20217;-65
2021/10/18 08:22:06;;;;;;;9.17;6.70;;;10.90;1.00;;;;;;5013470;28;20207;-65
2021/10/18 08:24:33;;;;;;;13.87;7.00;;;10.90;1.00;;;;;;5013638;28;20641;-65
2021/10/18 08:26:59;;;;;;;8.73;6.33;;;11.00;1.00;;;;;;5002988;28;20238;-65
2021/10/18 08:29:26;;;;;;;8.47;5.97;;;11.20;1.00;;;;;;4994088;28;20207;-64
2021/10/18 08:31:54;;;;;;;9.40;6.13;;;11.30;1.00;;;;;;4993700;28;20231;-68
2021/10/18 08:34:21;;;;;;;11.27;6.90;;;11.40;1.00;;;;;;4993707;28;20218;-67
2021/10/18 08:36:48;;;;;;;9.20;6.60;;;11.50;1.00;;;;;;4993331;28;20207;-64
2021/10/18 08:42:01;;;;;;;10.03;6.93;;;11.70;1.00;;;;;;4993626;28;20576;-66
2021/10/18 08:44:28;;;;;;;13.13;6.70;;;11.80;1.00;;;;;;4993605;28;20242;-66
2021/10/18 08:46:59;;;;;;;12.40;7.07;;;11.80;1.00;;;;;;4993391;28;20592;-65
2021/10/18 08:49:26;;;;;;;11.53;7.20;;;11.80;1.00;;;;;;4993877;28;20600;-66
2021/10/18 08:51:53;;;;;;;10.37;6.87;;;11.90;1.00;;;;;;4993264;28;20231;-66
2021/10/18 08:54:20;;;;;;;11.50;8.00;;;12.00;1.00;;;;;;4993571;28;20239;-64
2021/10/18 08:56:47;;;;;;;12.33;8.03;;;12.10;1.00;;;;;;4993186;28;20258;-64
2021/10/18 08:59:16;;;;;;;9.97;7.57;;;12.20;1.00;;;;;;4993443;28;20203;-65
2021/10/18 09:01:44;;;;;;;10.70;8.17;;;12.20;1.00;;;;;;4992665;28;20236;-66
2021/10/18 09:04:20;;;;;;;12.90;7.57;;;12.30;1.00;;;;;;4993606;28;20207;-62
2021/10/18 09:06:47;;;;;;;11.90;8.00;;;12.40;1.00;;;;;;4992815;28;20209;-62
2021/10/18 09:09:14;;;;;;;10.47;7.57;;;12.50;1.00;;;;;;4993218;28;20209;-62
2021/10/18 09:11:43;;;;;;;12.43;7.47;;;12.60;1.00;;;;;;4992662;28;20610;-62
2021/10/18 09:14:12;;;;;;;11.10;8.27;;;12.60;1.00;;;;;;4992661;28;20208;-62
2021/10/18 09:16:40;;;;;;;10.40;7.60;;;12.60;1.00;;;;;;4992929;28;20600;-65
2021/10/18 09:19:10;;;;;;;11.33;7.77;;;12.60;1.00;;;;;;4992723;28;20679;-63
2021/10/18 09:21:41;;;;;;;12.23;7.83;;;12.60;1.00;;;;;;4992802;28;20219;-65
2021/10/18 09:24:09;;;;;;;12.43;8.13;;;12.60;1.00;;;;;;4992913;28;20700;-63
2021/10/18 09:26:36;;;;;;;12.13;7.10;;;12.70;1.00;;;;;;4992414;28;20214;-63
2021/10/18 09:29:06;;;;;;;12.83;7.73;;;12.80;1.00;;;;;;4992767;28;20699;-67
2021/10/18 09:31:33;;;;;;;11.27;8.00;;;13.00;1.00;;;;;;4992464;28;20234;-66
2021/10/18 09:34:08;;;;;;;10.70;7.40;;;13.10;1.00;;;;;;4992917;28;20266;-65
2021/10/18 09:36:36;;;;;;;11.20;7.47;;;13.20;1.00;;;;;;4992396;28;20245;-65
2021/10/18 09:39:28;;;;;;;10.93;6.37;;;13.20;1.00;;;;;;4992400;28;20241;-65
2021/10/18 09:42:01;;;;;;;10.67;6.87;;;13.20;1.00;;;;;;4992538;28;20269;-65
2021/10/18 09:45:00;;;;;;;9.03;6.53;;;13.40;1.00;;;;;;4992663;28;20206;-66
2021/10/18 09:48:01;;;;;;;9.17;6.53;;;13.40;1.00;;;;;;4992611;28;20258;-63
2021/10/18 10:52:53;;;;;;;7.00;5.13;;;14.90;1.00;;;;;;4991435;28;20242;-63
2021/10/18 10:55:23;;;;;;;6.17;4.43;;;14.90;1.00;;;;;;4991761;28;20751;-63
2021/10/18 10:57:51;;;;;;;11.47;4.60;;;15.00;1.00;;;;;;5005363;28;20211;-63
2021/10/18 11:00:33;;;;;;;7.87;5.00;;;15.00;1.00;;;;;;5008623;28;20237;-62
2021/10/18 11:03:40;;;;;;;7.73;4.93;;;15.00;1.00;;;;;;4991770;28;20214;-66
2021/10/18 11:06:10;;;;;;;5.87;4.60;;;15.20;1.00;;;;;;4994192;28;20225;-65
2021/10/18 11:08:38;;;;;;;8.13;4.73;;;15.00;99.90;;;;;;4991576;28;20294;-63
2021/10/18 11:11:14;;;;;;;6.57;4.53;;;14.90;99.90;;;;;;4991198;28;20610;-64
2021/10/18 11:13:50;;;;;;;7.17;4.80;;;14.90;1.00;;;;;;4991969;28;20215;-64
2021/10/18 11:16:17;;;;;;;6.50;5.23;;;15.00;1.00;;;;;;4991009;28;20210;-63
2021/10/18 11:18:49;;;;;;;6.70;4.70;;;14.90;99.90;;;;;;4992122;28;20632;-63
2021/10/18 11:21:18;;;;;;;7.13;5.13;;;15.00;1.00;;;;;;4991420;28;20251;-63
2021/10/18 11:24:01;;;;;;;10.90;5.50;;;14.90;99.90;;;;;;4992018;28;20216;-62
2021/10/18 11:26:30;;;;;;;6.33;5.20;;;14.90;99.90;;;;;;4991772;28;20210;-65
2021/10/18 11:28:59;;;;;;;5.97;4.80;;;15.00;99.90;;;;;;4991540;28;20258;-65
2021/10/18 11:31:28;;;;;;;8.10;4.97;;;15.00;1.00;;;;;;5009679;28;20606;-65
2021/10/18 11:34:04;;;;;;;7.63;5.23;;;15.00;99.90;;;;;;5014720;28;20269;-64
2021/10/18 11:36:31;;;;;;;9.73;5.60;;;14.90;1.00;;;;;;5014261;28;20757;-63
2021/10/18 11:39:09;;;;;;;9.00;5.00;;;15.00;99.90;;;;;;5014619;28;20210;-62
2021/10/18 11:42:16;;;;;;;8.90;4.87;;;15.00;1.00;;;;;;5014494;28;20218;-62
2021/10/18 11:44:49;;;;;;;7.90;4.97;;;15.20;1.00;;;;;;5010780;28;20734;-59
2021/10/18 11:47:34;;;;;;;6.23;4.57;;;15.40;1.00;;;;;;5014725;28;20670;-62
2021/10/18 11:50:11;;;;;;;8.10;5.43;;;15.40;1.00;;;;;;5014317;28;20814;-64
2021/10/18 11:52:42;;;;;;;8.43;4.90;;;15.40;1.00;;;;;;5014306;28;20227;-64
2021/10/18 11:55:09;;;;;;;6.63;4.73;;;15.40;1.00;;;;;;5014324;28;20230;-65
2021/10/18 11:57:39;;;;;;;7.90;5.00;;;15.40;1.00;;;;;;5014138;28;20207;-65
2021/10/18 12:00:09;;;;;;;7.43;4.80;;;15.60;1.00;;;;;;5013874;28;20325;-65
2021/10/18 12:02:40;;;;;;;10.43;6.80;;;15.70;1.00;;;;;;5013634;28;20250;-65
2021/10/18 12:05:09;;;;;;;17.27;10.33;;;15.70;1.00;;;;;;5013590;28;20618;-64
2021/10/18 12:07:40;;;;;;;12.27;6.00;;;15.90;1.00;;;;;;5014100;28;20290;-65
2021/10/18 12:10:22;;;;;;;6.80;4.30;;;16.00;1.00;;;;;;5014077;28;20234;-65
2021/10/18 12:13:12;;;;;;;7.07;4.30;;;16.10;1.00;;;;;;5012889;28;21671;-65
2021/10/18 12:15:49;;;;;;;5.70;4.17;;;16.10;1.00;;;;;;5011216;28;20214;-64
2021/10/18 12:18:17;;;;;;;6.73;4.53;;;16.10;1.00;;;;;;5014193;28;20203;-62
2021/10/18 12:20:47;;;;;;;8.33;4.13;;;16.10;1.00;;;;;;5012954;28;20575;-64
2021/10/18 12:23:20;;;;;;;6.07;4.40;;;16.10;1.00;;;;;;5013717;28;20261;-67
2021/10/18 12:25:59;;;;;;;6.80;3.27;;;16.10;1.00;;;;;;5013051;28;20207;-64
2021/10/18 12:28:29;;;;;;;6.77;4.43;;;16.10;1.00;;;;;;5013736;28;20261;-64
2021/10/18 12:30:57;;;;;;;7.00;4.20;;;16.20;1.00;;;;;;5013425;28;20250;-63
2021/10/18 12:33:33;;;;;;;7.17;4.13;;;16.40;1.00;;;;;;5013588;28;20231;-67
2021/10/18 12:36:03;;;;;;;8.00;4.00;;;16.40;99.90;;;;;;5013177;28;20249;-64
2021/10/18 12:38:30;;;;;;;8.97;3.57;;;16.40;1.00;;;;;;5013704;28;20218;-65
2021/10/18 12:41:14;;;;;;;6.13;3.27;;;16.40;99.90;;;;;;5013253;28;20668;-62
2021/10/18 12:43:41;;;;;;;7.40;3.90;;;16.30;99.90;;;;;;5012983;28;20668;-62
2021/10/18 12:46:19;;;;;;;10.80;4.30;;;16.20;99.90;;;;;;5012903;28;20211;-63
2021/10/18 12:48:57;;;;;;;6.30;4.50;;;16.40;1.00;;;;;;5013107;28;20218;-62
2021/10/18 12:51:37;;;;;;;6.27;4.10;;;16.40;99.90;;;;;;5012938;28;20230;-63
2021/10/18 12:54:22;;;;;;;9.23;4.30;;;16.50;99.90;;;;;;5013119;28;20277;-65
2021/10/18 12:57:03;;;;;;;7.13;4.60;;;16.50;99.90;;;;;;5012755;28;20218;-63
2021/10/18 12:59:31;;;;;;;5.17;4.10;;;16.40;99.90;;;;;;5013309;28;20211;-65
2021/10/18 13:02:22;;;;;;;7.13;4.40;;;16.30;99.90;;;;;;5012669;28;20231;-63
2021/10/18 13:05:13;;;;;;;6.67;4.23;;;16.30;99.90;;;;;;5012796;28;20245;-64
2021/10/18 13:07:42;;;;;;;7.77;4.20;;;16.20;99.90;;;;;;5013174;28;20196;-65
2021/10/18 13:10:13;;;;;;;10.00;4.13;;;16.30;99.90;;;;;;5012782;28;20584;-65
2021/10/18 13:12:41;;;;;;;5.47;3.67;;;16.20;99.90;;;;;;5012701;28;20277;-63
2021/10/18 13:15:10;;;;;;;5.80;3.93;;;16.10;99.90;;;;;;5012536;28;20257;-65
2021/10/18 13:17:37;;;;;;;7.53;3.90;;;16.10;99.90;;;;;;5012567;28;20253;-64
2021/10/18 13:20:06;;;;;;;4.83;3.50;;;16.00;99.90;;;;;;5000758;28;20231;-63
2021/10/18 13:22:32;;;;;;;6.27;4.17;;;16.00;99.90;;;;;;4992651;28;20577;-62
2021/10/18 13:25:00;;;;;;;5.60;3.60;;;15.90;99.90;;;;;;5003293;28;20218;-63
2021/10/18 13:27:27;;;;;;;7.07;3.67;;;15.80;99.90;;;;;;5004935;28;20203;-64
2021/10/18 13:29:54;;;;;;;6.73;3.93;;;15.90;99.90;;;;;;5007167;28;20720;-64
2021/10/18 13:32:20;;;;;;;4.67;3.60;;;15.90;99.90;;;;;;4993888;28;20223;-66
2021/10/18 13:34:47;;;;;;;5.60;4.30;;;15.90;99.90;;;;;;5004353;28;20257;-64
2021/10/18 13:37:14;;;;;;;6.50;4.70;;;15.70;99.90;;;;;;5013166;28;20257;-62
2021/10/18 13:39:41;;;;;;;6.43;3.93;;;15.50;99.90;;;;;;5013240;28;20269;-63
2021/10/18 13:42:10;;;;;;;5.97;4.03;;;15.40;99.90;;;;;;5012370;28;20619;-63
2021/10/18 13:44:38;;;;;;;7.47;4.63;;;15.30;99.90;;;;;;5011710;28;20218;-64
2021/10/18 13:47:05;;;;;;;5.23;4.10;;;15.30;99.90;;;;;;5012125;28;20253;-64
2021/10/18 13:49:32;;;;;;;8.10;4.40;;;15.30;99.90;;;;;;5012641;28;20257;-64
2021/10/18 13:51:59;;;;;;;6.47;4.40;;;15.30;99.90;;;;;;5012149;28;20210;-63
2021/10/18 13:54:25;;;;;;;5.70;3.73;;;15.30;99.90;;;;;;5011882;28;20203;-67
2021/10/18 13:56:52;;;;;;;7.47;4.37;;;15.30;99.90;;;;;;5012206;28;20230;-63
2021/10/18 13:59:20;;;;;;;6.07;4.10;;;15.20;99.90;;;;;;5012599;28;20206;-63
2021/10/18 14:01:47;;;;;;;6.33;4.37;;;15.20;99.90;;;;;;5011890;28;20973;-64
2021/10/18 14:04:14;;;;;;;5.73;4.03;;;15.10;99.90;;;;;;5012303;28;20631;-64
2021/10/18 14:06:41;;;;;;;6.33;3.73;;;15.20;99.90;;;;;;5011777;28;20329;-64
2021/10/18 14:09:08;;;;;;;7.27;4.90;;;15.20;99.90;;;;;;5012028;28;20238;-64
2021/10/18 14:11:35;;;;;;;7.87;4.53;;;15.20;99.90;;;;;;5011918;28;20623;-63